createdAt,value
2022-09-17T00:02:33.185Z,22.21
2022-09-17T00:07:35.111Z,21.96
2022-09-17T00:12:33.438Z,21.79
2022-09-17T00:17:32.658Z,21.99
2022-09-17T00:22:30.194Z,22.13
2022-09-17T00:27:28.631Z,22.05
2022-09-17T00:32:27.589Z,21.99
2022-09-17T00:37:25.795Z,22.01
2022-09-17T00:42:24.318Z,22.12
2022-09-17T00:47:28.579Z,22.28
2022-09-17T00:52:31.815Z,22.10
2022-09-17T00:57:31.091Z,22.13
2022-09-17T01:02:33.780Z,22.04
2022-09-17T01:08:05.995Z,22.23
2022-09-17T01:13:20.516Z,22.26
2022-09-17T01:18:27.683Z,22.22
2022-09-17T01:24:05.816Z,22.09
2022-09-17T01:29:26.425Z,22.24
2022-09-17T01:34:34.698Z,22.01
2022-09-17T01:39:53.603Z,22.12
2022-09-17T01:45:05.921Z,22.03
2022-09-17T01:50:18.518Z,22.05
2022-09-17T01:55:17.997Z,21.77
2022-09-17T02:00:26.551Z,21.99
2022-09-17T02:05:55.694Z,22.06
2022-09-17T02:11:05.567Z,21.77
2022-09-17T02:16:13.402Z,22.13
2022-09-17T02:21:41.383Z,22.01
2022-09-17T02:26:47.769Z,21.96
2022-09-17T02:31:46.508Z,22.17
2022-09-17T02:36:45.454Z,22.36
2022-09-17T02:41:59.044Z,22.33
2022-09-17T02:47:16.426Z,22.56
2022-09-17T02:52:20.067Z,22.47
2022-09-17T02:57:25.904Z,21.67
2022-09-17T03:02:34.941Z,21.05
2022-09-17T03:07:35.566Z,21.51
2022-09-17T03:12:40.941Z,20.71
2022-09-17T03:17:39.382Z,20.68
2022-09-17T03:22:42.451Z,21.10
2022-09-17T03:27:40.774Z,21.38
2022-09-17T03:32:40.108Z,21.37
2022-09-17T03:37:43.437Z,21.31
2022-09-17T03:42:43.651Z,21.23
2022-09-17T03:47:42.295Z,20.48
2022-09-17T03:52:40.280Z,21.00
2022-09-17T03:57:39.449Z,21.06
2022-09-17T04:02:38.083Z,21.08
2022-09-17T04:07:43.455Z,20.76
2022-09-17T04:12:41.376Z,20.45
2022-09-17T04:17:39.793Z,20.06
2022-09-17T04:22:41.106Z,20.43
2022-09-17T04:27:39.181Z,20.95
2022-09-17T04:32:44.055Z,21.29
2022-09-17T04:37:42.283Z,21.28
2022-09-17T04:42:49.268Z,21.41
2022-09-17T04:47:49.507Z,21.47
2022-09-17T04:52:48.104Z,21.54
2022-09-17T04:57:57.474Z,21.45
2022-09-17T05:02:58.804Z,21.57
2022-09-17T05:08:00.094Z,21.20
2022-09-17T05:12:58.439Z,21.45
2022-09-17T05:17:59.081Z,21.14
2022-09-17T05:22:59.414Z,21.12
2022-09-17T05:28:01.399Z,21.27
2022-09-17T05:33:00.856Z,21.18
2022-09-17T05:38:02.041Z,20.96
2022-09-17T05:43:03.311Z,20.79
2022-09-17T05:48:02.369Z,20.77
2022-09-17T05:53:10.814Z,20.90
2022-09-17T05:58:19.029Z,21.31
2022-09-17T06:03:25.213Z,21.49
2022-09-17T06:08:23.755Z,21.73
2022-09-17T06:13:21.723Z,22.37
2022-09-17T06:18:20.637Z,21.75
2022-09-17T06:23:21.581Z,22.15
2022-09-17T06:28:19.055Z,22.38
2022-09-17T06:33:18.550Z,22.15
2022-09-17T06:38:17.023Z,22.38
2022-09-17T06:43:17.423Z,22.66
2022-09-17T06:48:15.301Z,22.53
2022-09-17T06:53:13.502Z,22.67
2022-09-17T06:58:11.004Z,22.91
2022-09-17T07:03:12.784Z,23.35
2022-09-17T07:08:12.847Z,22.79
2022-09-17T07:13:13.212Z,22.95
2022-09-17T07:18:11.530Z,23.54
2022-09-17T07:23:10.116Z,22.94
2022-09-17T07:28:11.649Z,23.32
2022-09-17T07:33:11.503Z,23.44
2022-09-17T07:38:09.617Z,23.15
2022-09-17T07:43:09.122Z,23.05
2022-09-17T07:48:06.993Z,22.58
2022-09-17T07:53:07.166Z,23.29
2022-09-17T07:58:05.316Z,23.77
2022-09-17T08:03:03.540Z,24.37
2022-09-17T08:08:03.971Z,23.83
2022-09-17T08:13:02.160Z,24.38
2022-09-17T08:18:02.785Z,24.60
2022-09-17T08:23:01.386Z,24.62
2022-09-17T08:28:03.149Z,24.75
2022-09-17T08:33:02.417Z,25.11
2022-09-17T08:38:00.864Z,25.49
2022-09-17T08:43:08.648Z,25.74
2022-09-17T08:48:12.072Z,26.23
2022-09-17T08:53:37.846Z,26.55
2022-09-17T08:59:04.904Z,26.48
2022-09-17T09:04:38.847Z,26.90
2022-09-17T09:09:44.885Z,27.04
2022-09-17T09:15:06.293Z,27.22
2022-09-17T09:20:05.536Z,27.20
2022-09-17T09:25:21.613Z,27.21
2022-09-17T09:30:23.808Z,27.45
2022-09-17T09:35:31.883Z,27.54
2022-09-17T09:40:55.805Z,27.76
2022-09-17T09:46:01.047Z,27.88
2022-09-17T09:51:22.159Z,27.45
2022-09-17T09:56:42.099Z,27.61
2022-09-17T10:01:46.267Z,27.27
2022-09-17T10:06:44.507Z,27.62
2022-09-17T10:11:42.971Z,27.87
2022-09-17T10:16:41.402Z,27.83
2022-09-17T10:21:41.659Z,27.87
2022-09-17T10:26:40.532Z,27.53
2022-09-17T10:31:54.202Z,27.85
2022-09-17T10:36:53.183Z,27.96
2022-09-17T10:41:55.633Z,28.16
2022-09-17T10:46:54.004Z,28.13
2022-09-17T10:51:52.520Z,28.06
2022-09-17T10:56:55.094Z,27.99
2022-09-17T11:02:09.898Z,27.69
2022-09-17T11:07:23.049Z,27.53
2022-09-17T11:12:32.439Z,27.49
2022-09-17T11:17:57.854Z,27.61
2022-09-17T11:23:22.950Z,27.34
2022-09-17T11:28:43.256Z,27.26
2022-09-17T11:33:40.928Z,27.06
2022-09-17T11:38:50.212Z,26.66
2022-09-17T11:44:25.883Z,26.61
2022-09-17T11:49:26.333Z,26.43
2022-09-17T11:54:43.902Z,26.17
2022-09-17T11:59:52.224Z,26.59
2022-09-17T12:05:00.402Z,26.45
2022-09-17T12:10:26.888Z,26.31
2022-09-17T12:15:28.441Z,26.39
2022-09-17T12:20:36.011Z,26.26
2022-09-17T12:25:43.402Z,26.01
2022-09-17T12:30:47.327Z,26.06
2022-09-17T12:36:05.725Z,26.15
2022-09-17T12:41:27.684Z,25.88
2022-09-17T12:47:08.405Z,25.89
2022-09-17T12:52:22.191Z,25.82
2022-09-17T12:57:42.146Z,25.80
2022-09-17T13:02:52.181Z,25.79
2022-09-17T13:08:11.908Z,26.15
2022-09-17T13:13:32.865Z,26.25
2022-09-17T13:24:17.780Z,26.13
2022-09-17T13:29:47.157Z,26.66
2022-09-17T13:34:45.272Z,26.24
2022-09-17T13:39:45.431Z,26.37
2022-09-17T13:44:48.219Z,26.27
2022-09-17T13:50:12.952Z,26.60
2022-09-17T13:55:35.223Z,26.73
2022-09-17T14:01:26.407Z,26.70
2022-09-17T14:06:25.192Z,26.59
2022-09-17T14:11:27.770Z,26.61
2022-09-17T14:16:37.622Z,26.45
2022-09-17T14:21:36.537Z,26.56
2022-09-17T14:26:46.774Z,26.66
2022-09-17T14:31:47.351Z,25.91
2022-09-17T14:36:46.176Z,25.72
2022-09-17T14:41:44.700Z,25.53
2022-09-17T14:46:59.273Z,25.72
2022-09-17T14:52:06.650Z,25.75
2022-09-17T14:57:31.977Z,26.10
2022-09-17T15:02:42.078Z,25.78
2022-09-17T15:07:45.183Z,25.60
2022-09-17T15:12:47.068Z,25.73
2022-09-17T15:17:45.398Z,25.53
2022-09-17T15:22:46.259Z,25.26
2022-09-17T15:27:48.582Z,25.29
2022-09-17T15:32:54.213Z,25.29
2022-09-17T15:38:23.551Z,25.28
2022-09-17T15:43:34.205Z,25.18
2022-09-17T15:48:40.487Z,24.89
2022-09-17T15:53:40.858Z,24.81
2022-09-17T15:58:45.079Z,24.53
2022-09-17T16:03:44.167Z,24.25
2022-09-17T16:08:45.130Z,23.74
2022-09-17T16:13:55.643Z,24.17
2022-09-17T16:18:53.523Z,23.86
2022-09-17T16:23:58.204Z,23.68
2022-09-17T16:29:02.615Z,23.77
2022-09-17T16:34:03.114Z,23.49
2022-09-17T16:39:01.846Z,23.55
2022-09-17T16:44:02.844Z,23.43
2022-09-17T16:49:15.495Z,23.31
2022-09-17T16:54:17.245Z,23.67
2022-09-17T16:59:16.357Z,23.29
2022-09-17T17:04:18.158Z,23.80
2022-09-17T17:09:20.008Z,23.41
2022-09-17T17:14:20.340Z,23.63
2022-09-17T17:19:22.190Z,23.52
2022-09-17T17:24:22.136Z,23.54
2022-09-17T17:29:26.322Z,23.54
2022-09-17T17:34:24.785Z,23.66
2022-09-17T17:39:25.223Z,23.46
2022-09-17T17:44:28.907Z,23.55
2022-09-17T17:49:30.479Z,23.55
2022-09-17T17:54:40.493Z,23.73
2022-09-17T17:59:42.207Z,23.72
2022-09-17T18:04:43.697Z,23.53
2022-09-17T18:09:47.664Z,23.70
2022-09-17T18:15:02.424Z,23.65
2022-09-17T18:20:05.303Z,23.71
2022-09-17T18:25:07.678Z,23.39
2022-09-17T18:30:07.447Z,23.30
2022-09-17T18:35:07.302Z,23.28
2022-09-17T18:40:14.477Z,23.55
2022-09-17T18:45:13.083Z,23.20
2022-09-17T18:50:14.511Z,23.25
2022-09-17T18:55:14.541Z,23.17
2022-09-17T19:00:13.867Z,23.29
2022-09-17T19:05:16.077Z,22.80
2022-09-17T19:10:17.168Z,22.91
2022-09-17T19:15:34.907Z,22.95
2022-09-17T19:20:49.040Z,23.02
2022-09-17T19:26:51.202Z,23.19
2022-09-17T19:31:56.734Z,22.93
2022-09-17T19:36:54.186Z,23.05
2022-09-17T19:41:58.333Z,22.91
2022-09-17T19:46:59.874Z,23.11
2022-09-17T19:51:57.561Z,22.96
2022-09-17T19:57:00.368Z,23.31
2022-09-17T20:01:58.741Z,23.21
2022-09-17T20:07:04.683Z,23.03
2022-09-17T20:12:06.208Z,23.32
2022-09-17T20:17:06.946Z,23.19
2022-09-17T20:22:10.720Z,23.16
2022-09-17T20:27:09.841Z,23.41
2022-09-17T20:32:09.805Z,23.12
2022-09-17T20:37:13.831Z,23.17
2022-09-17T20:42:12.088Z,23.26
2022-09-17T20:47:14.109Z,23.46
2022-09-17T20:52:16.801Z,22.95
2022-09-17T20:57:18.413Z,23.03
2022-09-17T21:02:17.463Z,23.14
2022-09-17T21:07:19.876Z,22.77
2022-09-17T21:12:27.522Z,22.94
2022-09-17T21:17:52.745Z,22.71
2022-09-17T21:22:54.629Z,22.76
2022-09-17T21:27:55.585Z,22.62
2022-09-17T21:33:05.984Z,22.40
2022-09-17T21:38:04.811Z,22.50
2022-09-17T21:43:03.417Z,22.04
2022-09-17T21:48:05.887Z,22.12
2022-09-17T21:53:04.605Z,22.36
2022-09-17T21:58:14.978Z,22.19
2022-09-17T22:03:20.660Z,21.80
2022-09-17T22:08:27.215Z,21.93
2022-09-17T22:13:42.078Z,21.53
2022-09-17T22:18:40.980Z,21.72
2022-09-17T22:23:42.496Z,21.64
2022-09-17T22:28:47.959Z,21.74
2022-09-17T22:33:48.058Z,21.56
2022-09-17T22:39:44.532Z,21.81
2022-09-17T22:44:50.282Z,21.40
2022-09-17T22:49:48.831Z,21.61
2022-09-17T22:54:48.894Z,21.71
2022-09-17T22:59:51.722Z,21.61
2022-09-17T23:04:52.909Z,21.54
2022-09-17T23:09:52.151Z,21.24
2022-09-17T23:14:57.276Z,21.41
2022-09-17T23:19:55.881Z,21.23
2022-09-17T23:24:54.553Z,21.33
2022-09-17T23:29:55.157Z,21.41
2022-09-17T23:34:58.266Z,21.30
2022-09-17T23:39:58.191Z,21.32
2022-09-17T23:45:00.591Z,21.30
2022-09-17T23:50:01.116Z,21.46
2022-09-17T23:55:03.305Z,21.20
